sensor_id;sensor_type;location;lat;lon;timestamp;noise_LAeq;noise_LA_min;noise_LA_max;noise_LA01;noise_LA95
66274;Laerm;58450;52.150;4.466;2022-11-11T00:01:12;43.27;37.10;61.81;;
66274;Laerm;58450;52.150;4.466;2022-11-11T00:03:41;43.52;37.58;64.00;;
66274;Laerm;58450;52.150;4.466;2022-11-11T00:06:11;41.70;35.75;57.80;;
66274;Laerm;58450;52.150;4.466;2022-11-11T00:08:41;47.05;36.52;67.42;;
66274;Laerm;58450;52.150;4.466;2022-11-11T00:11:11;41.40;35.70;58.99;;
66274;Laerm;58450;52.150;4.466;2022-11-11T00:13:41;45.34;37.67;67.52;;
66274;Laerm;58450;52.150;4.466;2022-11-11T00:16:11;41.37;36.36;51.06;;
66274;Laerm;58450;52.150;4.466;2022-11-11T00:18:40;44.17;36.96;60.41;;
66274;Laerm;58450;52.150;4.466;2022-11-11T00:21:26;48.01;37.09;68.29;;
66274;Laerm;58450;52.150;4.466;2022-11-11T00:24:24;43.50;36.46;56.71;;
66274;Laerm;58450;52.150;4.466;2022-11-11T00:27:06;43.97;37.84;61.12;;
66274;Laerm;58450;52.150;4.466;2022-11-11T00:29:34;46.76;37.58;66.89;;
66274;Laerm;58450;52.150;4.466;2022-11-11T00:32:03;44.62;37.19;64.48;;
66274;Laerm;58450;52.150;4.466;2022-11-11T00:34:50;47.01;37.59;65.96;;
66274;Laerm;58450;52.150;4.466;2022-11-11T00:37:36;53.39;37.64;74.49;;
66274;Laerm;58450;52.150;4.466;2022-11-11T00:40:06;46.46;36.79;73.08;;
66274;Laerm;58450;52.150;4.466;2022-11-11T00:42:35;47.76;37.15;65.00;;
66274;Laerm;58450;52.150;4.466;2022-11-11T00:45:04;41.39;36.28;59.24;;
66274;Laerm;58450;52.150;4.466;2022-11-11T00:47:32;41.26;36.55;58.27;;
66274;Laerm;58450;52.150;4.466;2022-11-11T00:50:19;41.13;36.09;54.12;;
66274;Laerm;58450;52.150;4.466;2022-11-11T00:53:10;46.52;37.03;64.13;;
66274;Laerm;58450;52.150;4.466;2022-11-11T00:55:40;41.08;36.26;54.71;;
66274;Laerm;58450;52.150;4.466;2022-11-11T00:58:07;49.77;36.70;72.73;;
66274;Laerm;58450;52.150;4.466;2022-11-11T01:00:34;46.67;36.75;71.41;;
66274;Laerm;58450;52.150;4.466;2022-11-11T01:03:02;42.74;37.39;56.74;;
66274;Laerm;58450;52.150;4.466;2022-11-11T01:05:30;41.02;35.89;54.84;;
66274;Laerm;58450;52.150;4.466;2022-11-11T01:07:57;43.51;36.01;58.18;;
66274;Laerm;58450;52.150;4.466;2022-11-11T01:10:25;42.36;36.73;67.54;;
66274;Laerm;58450;52.150;4.466;2022-11-11T01:13:14;41.33;36.22;57.48;;
66274;Laerm;58450;52.150;4.466;2022-11-11T01:15:45;41.10;36.40;48.59;;
66274;Laerm;58450;52.150;4.466;2022-11-11T01:18:17;40.83;36.58;48.72;;
66274;Laerm;58450;52.150;4.466;2022-11-11T01:20:45;45.25;37.33;66.66;;
66274;Laerm;58450;52.150;4.466;2022-11-11T01:23:13;43.43;36.72;65.37;;
66274;Laerm;58450;52.150;4.466;2022-11-11T01:25:42;42.18;37.80;55.79;;
66274;Laerm;58450;52.150;4.466;2022-11-11T01:28:10;45.96;37.74;64.25;;
66274;Laerm;58450;52.150;4.466;2022-11-11T01:30:38;47.00;37.01;60.73;;
66274;Laerm;58450;52.150;4.466;2022-11-11T01:33:05;42.64;36.65;56.29;;
66274;Laerm;58450;52.150;4.466;2022-11-11T01:35:38;44.51;36.73;65.66;;
66274;Laerm;58450;52.150;4.466;2022-11-11T01:38:06;42.42;36.21;59.56;;
66274;Laerm;58450;52.150;4.466;2022-11-11T01:40:40;42.99;36.82;60.27;;
66274;Laerm;58450;52.150;4.466;2022-11-11T01:43:21;47.48;36.23;79.04;;
66274;Laerm;58450;52.150;4.466;2022-11-11T01:45:54;43.52;37.64;62.14;;
66274;Laerm;58450;52.150;4.466;2022-11-11T01:48:30;45.54;36.90;64.34;;
66274;Laerm;58450;52.150;4.466;2022-11-11T01:51:31;42.64;37.07;61.39;;
66274;Laerm;58450;52.150;4.466;2022-11-11T01:54:06;45.18;36.80;64.14;;
66274;Laerm;58450;52.150;4.466;2022-11-11T01:56:35;40.04;36.32;57.44;;
66274;Laerm;58450;52.150;4.466;2022-11-11T01:59:08;42.95;37.33;62.15;;
66274;Laerm;58450;52.150;4.466;2022-11-11T02:01:38;43.69;36.70;59.24;;
66274;Laerm;58450;52.150;4.466;2022-11-11T02:04:08;44.63;37.40;63.82;;
66274;Laerm;58450;52.150;4.466;2022-11-11T02:06:58;43.74;37.16;59.50;;
66274;Laerm;58450;52.150;4.466;2022-11-11T02:09:28;42.59;37.69;62.40;;
66274;Laerm;58450;52.150;4.466;2022-11-11T02:12:02;45.92;38.52;65.60;;
66274;Laerm;58450;52.150;4.466;2022-11-11T02:14:58;46.35;36.57;69.17;;
66274;Laerm;58450;52.150;4.466;2022-11-11T02:17:30;46.84;38.17;57.78;;
66274;Laerm;58450;52.150;4.466;2022-11-11T02:20:00;43.94;37.67;60.30;;
66274;Laerm;58450;52.150;4.466;2022-11-11T02:22:38;44.81;38.51;60.72;;
66274;Laerm;58450;52.150;4.466;2022-11-11T02:25:13;48.57;38.10;67.38;;
66274;Laerm;58450;52.150;4.466;2022-11-11T02:27:47;58.13;38.98;84.18;;
66274;Laerm;58450;52.150;4.466;2022-11-11T02:30:18;47.79;38.58;60.59;;
66274;Laerm;58450;52.150;4.466;2022-11-11T02:32:49;42.14;36.74;58.78;;
66274;Laerm;58450;52.150;4.466;2022-11-11T02:35:20;43.93;37.75;62.11;;
66274;Laerm;58450;52.150;4.466;2022-11-11T02:37:51;42.37;38.42;53.01;;
66274;Laerm;58450;52.150;4.466;2022-11-11T02:40:25;44.88;36.60;60.64;;
66274;Laerm;58450;52.150;4.466;2022-11-11T02:42:55;44.50;37.53;68.10;;
66274;Laerm;58450;52.150;4.466;2022-11-11T02:45:23;46.59;37.64;60.90;;
66274;Laerm;58450;52.150;4.466;2022-11-11T02:47:51;52.83;38.71;75.49;;
66274;Laerm;58450;52.150;4.466;2022-11-11T02:50:18;47.03;38.60;68.62;;
66274;Laerm;58450;52.150;4.466;2022-11-11T02:52:46;43.33;36.87;66.47;;
66274;Laerm;58450;52.150;4.466;2022-11-11T02:55:13;44.69;38.04;64.49;;
66274;Laerm;58450;52.150;4.466;2022-11-11T02:57:42;43.07;37.04;59.46;;
66274;Laerm;58450;52.150;4.466;2022-11-11T03:00:12;52.80;37.25;79.57;;
66274;Laerm;58450;52.150;4.466;2022-11-11T03:02:39;44.22;38.10;61.28;;
66274;Laerm;58450;52.150;4.466;2022-11-11T03:05:07;55.71;38.10;79.88;;
66274;Laerm;58450;52.150;4.466;2022-11-11T03:07:35;45.49;37.75;59.45;;
66274;Laerm;58450;52.150;4.466;2022-11-11T03:10:03;44.09;38.66;54.97;;
66274;Laerm;58450;52.150;4.466;2022-11-11T03:12:30;45.98;38.02;60.11;;
66274;Laerm;58450;52.150;4.466;2022-11-11T03:14:59;58.52;37.99;81.58;;
66274;Laerm;58450;52.150;4.466;2022-11-11T03:17:26;43.86;36.52;56.28;;
66274;Laerm;58450;52.150;4.466;2022-11-11T03:20:07;44.29;36.71;65.09;;
66274;Laerm;58450;52.150;4.466;2022-11-11T03:23:01;46.29;37.76;66.52;;
66274;Laerm;58450;52.150;4.466;2022-11-11T03:25:29;52.15;38.37;72.55;;
66274;Laerm;58450;52.150;4.466;2022-11-11T03:28:09;41.79;37.13;56.36;;
66274;Laerm;58450;52.150;4.466;2022-11-11T03:30:40;53.64;38.22;79.36;;
66274;Laerm;58450;52.150;4.466;2022-11-11T03:33:09;43.00;37.44;56.58;;
66274;Laerm;58450;52.150;4.466;2022-11-11T03:35:37;47.14;37.17;63.63;;
66274;Laerm;58450;52.150;4.466;2022-11-11T03:38:07;44.98;38.41;61.84;;
66274;Laerm;58450;52.150;4.466;2022-11-11T03:40:41;46.24;38.91;58.54;;
66274;Laerm;58450;52.150;4.466;2022-11-11T03:43:09;43.32;37.18;60.44;;
66274;Laerm;58450;52.150;4.466;2022-11-11T03:45:38;48.24;38.74;60.66;;
66274;Laerm;58450;52.150;4.466;2022-11-11T03:48:07;42.97;38.33;58.66;;
66274;Laerm;58450;52.150;4.466;2022-11-11T03:50:34;42.38;37.69;54.73;;
66274;Laerm;58450;52.150;4.466;2022-11-11T03:53:02;42.62;37.32;58.35;;
66274;Laerm;58450;52.150;4.466;2022-11-11T03:55:30;42.96;37.62;60.78;;
66274;Laerm;58450;52.150;4.466;2022-11-11T03:57:57;41.95;36.80;50.41;;
66274;Laerm;58450;52.150;4.466;2022-11-11T04:00:27;42.38;37.42;60.42;;
66274;Laerm;58450;52.150;4.466;2022-11-11T04:03:04;43.18;37.53;64.68;;
66274;Laerm;58450;52.150;4.466;2022-11-11T04:05:49;41.02;37.31;49.70;;
66274;Laerm;58450;52.150;4.466;2022-11-11T04:08:34;42.44;37.28;56.28;;
66274;Laerm;58450;52.150;4.466;2022-11-11T04:11:24;43.57;37.48;65.30;;
66274;Laerm;58450;52.150;4.466;2022-11-11T04:13:53;41.91;37.60;54.53;;
66274;Laerm;58450;52.150;4.466;2022-11-11T04:16:41;43.19;37.45;56.45;;
66274;Laerm;58450;52.150;4.466;2022-11-11T04:19:10;42.71;38.26;49.50;;
66274;Laerm;58450;52.150;4.466;2022-11-11T04:21:55;43.46;38.97;52.78;;
66274;Laerm;58450;52.150;4.466;2022-11-11T04:24:22;54.09;38.72;74.84;;
66274;Laerm;58450;52.150;4.466;2022-11-11T04:27:11;48.44;39.45;65.69;;
66274;Laerm;58450;52.150;4.466;2022-11-11T04:29:39;46.76;38.85;65.89;;
66274;Laerm;58450;52.150;4.466;2022-11-11T04:32:08;46.24;38.83;60.61;;
66274;Laerm;58450;52.150;4.466;2022-11-11T04:34:53;43.94;38.98;60.30;;
66274;Laerm;58450;52.150;4.466;2022-11-11T04:37:23;44.89;40.29;62.96;;
66274;Laerm;58450;52.150;4.466;2022-11-11T04:39:51;45.65;39.84;61.48;;
66274;Laerm;58450;52.150;4.466;2022-11-11T04:42:36;49.30;41.11;65.26;;
66274;Laerm;58450;52.150;4.466;2022-11-11T04:45:06;47.81;39.80;61.87;;
66274;Laerm;58450;52.150;4.466;2022-11-11T04:47:53;50.49;40.32;70.13;;
66274;Laerm;58450;52.150;4.466;2022-11-11T04:50:23;45.43;40.18;56.20;;
66274;Laerm;58450;52.150;4.466;2022-11-11T04:52:50;45.53;40.20;56.30;;
66274;Laerm;58450;52.150;4.466;2022-11-11T04:55:18;45.89;40.48;62.05;;
66274;Laerm;58450;52.150;4.466;2022-11-11T04:58:03;50.74;40.54;69.72;;
66274;Laerm;58450;52.150;4.466;2022-11-11T05:00:30;47.52;40.97;60.80;;
66274;Laerm;58450;52.150;4.466;2022-11-11T05:02:58;44.71;38.88;54.91;;
66274;Laerm;58450;52.150;4.466;2022-11-11T05:05:47;45.51;40.07;67.08;;
66274;Laerm;58450;52.150;4.466;2022-11-11T05:08:36;46.50;41.18;58.16;;
66274;Laerm;58450;52.150;4.466;2022-11-11T05:11:24;45.63;40.06;61.86;;
66274;Laerm;58450;52.150;4.466;2022-11-11T05:13:55;50.29;40.67;64.21;;
66274;Laerm;58450;52.150;4.466;2022-11-11T05:16:50;48.96;40.26;65.76;;
66274;Laerm;58450;52.150;4.466;2022-11-11T05:19:36;53.84;41.17;83.24;;
66274;Laerm;58450;52.150;4.466;2022-11-11T05:22:28;52.96;40.41;80.54;;
66274;Laerm;58450;52.150;4.466;2022-11-11T05:24:56;53.26;41.54;74.62;;
66274;Laerm;58450;52.150;4.466;2022-11-11T05:27:41;47.04;41.08;60.46;;
66274;Laerm;58450;52.150;4.466;2022-11-11T05:30:12;47.52;42.23;66.78;;
66274;Laerm;58450;52.150;4.466;2022-11-11T05:32:41;47.36;41.85;62.49;;
66274;Laerm;58450;52.150;4.466;2022-11-11T05:35:10;49.42;41.62;67.17;;
66274;Laerm;58450;52.150;4.466;2022-11-11T05:37:40;48.67;42.05;62.48;;
66274;Laerm;58450;52.150;4.466;2022-11-11T05:40:10;58.12;42.30;84.85;;
66274;Laerm;58450;52.150;4.466;2022-11-11T05:42:40;50.51;42.75;62.34;;
66274;Laerm;58450;52.150;4.466;2022-11-11T05:45:09;46.97;42.38;59.26;;
66274;Laerm;58450;52.150;4.466;2022-11-11T05:47:36;48.62;42.70;58.54;;
66274;Laerm;58450;52.150;4.466;2022-11-11T05:50:05;46.63;42.16;54.30;;
66274;Laerm;58450;52.150;4.466;2022-11-11T05:52:33;54.72;42.53;81.03;;
66274;Laerm;58450;52.150;4.466;2022-11-11T05:55:01;48.27;41.67;60.92;;
66274;Laerm;58450;52.150;4.466;2022-11-11T05:57:29;45.72;41.29;52.54;;
66274;Laerm;58450;52.150;4.466;2022-11-11T05:59:57;46.64;41.95;61.64;;
66274;Laerm;58450;52.150;4.466;2022-11-11T06:02:24;45.43;40.69;56.89;;
66274;Laerm;58450;52.150;4.466;2022-11-11T06:04:51;45.88;41.88;54.42;;
66274;Laerm;58450;52.150;4.466;2022-11-11T06:07:20;47.29;42.15;57.01;;
66274;Laerm;58450;52.150;4.466;2022-11-11T06:09:48;50.03;44.19;65.99;;
66274;Laerm;58450;52.150;4.466;2022-11-11T06:12:16;47.73;43.06;54.52;;
66274;Laerm;58450;52.150;4.466;2022-11-11T06:14:44;49.14;42.43;60.94;;
66274;Laerm;58450;52.150;4.466;2022-11-11T06:17:11;49.93;43.12;66.47;;
66274;Laerm;58450;52.150;4.466;2022-11-11T06:19:39;50.83;43.62;70.05;;
66274;Laerm;58450;52.150;4.466;2022-11-11T06:22:06;49.21;44.73;66.55;;
66274;Laerm;58450;52.150;4.466;2022-11-11T06:24:34;53.59;44.37;71.30;;
66274;Laerm;58450;52.150;4.466;2022-11-11T06:27:01;56.60;44.31;85.28;;
66274;Laerm;58450;52.150;4.466;2022-11-11T06:29:29;49.56;44.05;64.28;;
66274;Laerm;58450;52.150;4.466;2022-11-11T06:31:56;51.79;44.98;73.28;;
66274;Laerm;58450;52.150;4.466;2022-11-11T06:34:24;49.54;44.37;64.53;;
66274;Laerm;58450;52.150;4.466;2022-11-11T06:36:51;49.26;44.52;62.77;;
66274;Laerm;58450;52.150;4.466;2022-11-11T06:39:19;51.19;45.61;63.21;;
66274;Laerm;58450;52.150;4.466;2022-11-11T06:41:46;49.83;45.25;60.15;;
66274;Laerm;58450;52.150;4.466;2022-11-11T06:44:14;52.95;45.99;64.20;;
66274;Laerm;58450;52.150;4.466;2022-11-11T06:46:42;57.13;46.89;81.89;;
66274;Laerm;58450;52.150;4.466;2022-11-11T06:49:10;52.56;46.57;69.84;;
66274;Laerm;58450;52.150;4.466;2022-11-11T06:51:37;54.56;45.99;76.01;;
66274;Laerm;58450;52.150;4.466;2022-11-11T06:54:05;54.73;46.68;72.75;;
66274;Laerm;58450;52.150;4.466;2022-11-11T06:56:32;51.19;46.48;70.75;;
66274;Laerm;58450;52.150;4.466;2022-11-11T06:59:00;51.22;46.29;67.10;;
66274;Laerm;58450;52.150;4.466;2022-11-11T07:01:27;51.32;46.09;68.07;;
66274;Laerm;58450;52.150;4.466;2022-11-11T07:03:56;56.85;45.80;74.38;;
66274;Laerm;58450;52.150;4.466;2022-11-11T07:06:23;50.31;45.02;69.69;;
66274;Laerm;58450;52.150;4.466;2022-11-11T07:08:51;50.75;45.27;70.94;;
66274;Laerm;58450;52.150;4.466;2022-11-11T07:11:18;49.65;44.19;62.62;;
66274;Laerm;58450;52.150;4.466;2022-11-11T07:13:46;52.68;46.94;67.37;;
66274;Laerm;58450;52.150;4.466;2022-11-11T07:16:13;50.88;45.06;62.70;;
66274;Laerm;58450;52.150;4.466;2022-11-11T07:18:41;53.31;46.93;60.77;;
66274;Laerm;58450;52.150;4.466;2022-11-11T07:21:09;52.18;48.15;62.59;;
66274;Laerm;58450;52.150;4.466;2022-11-11T07:23:37;52.97;47.81;63.49;;
66274;Laerm;58450;52.150;4.466;2022-11-11T07:26:04;52.34;48.08;62.91;;
66274;Laerm;58450;52.150;4.466;2022-11-11T07:28:32;53.68;46.68;70.96;;
66274;Laerm;58450;52.150;4.466;2022-11-11T07:30:59;51.59;46.20;57.13;;
66274;Laerm;58450;52.150;4.466;2022-11-11T07:33:27;51.83;46.88;59.51;;
66274;Laerm;58450;52.150;4.466;2022-11-11T07:35:54;51.22;47.02;61.28;;
66274;Laerm;58450;52.150;4.466;2022-11-11T07:38:23;52.12;47.28;64.69;;
66274;Laerm;58450;52.150;4.466;2022-11-11T07:40:51;51.21;46.66;61.30;;
66274;Laerm;58450;52.150;4.466;2022-11-11T07:43:18;55.51;47.28;67.11;;
66274;Laerm;58450;52.150;4.466;2022-11-11T07:45:45;53.24;48.08;67.81;;
66274;Laerm;58450;52.150;4.466;2022-11-11T07:48:13;62.51;53.20;69.58;;
66274;Laerm;58450;52.150;4.466;2022-11-11T07:50:40;52.96;46.47;64.88;;
66274;Laerm;58450;52.150;4.466;2022-11-11T07:53:08;52.59;46.90;69.05;;
66274;Laerm;58450;52.150;4.466;2022-11-11T07:55:37;51.37;46.37;60.94;;
66274;Laerm;58450;52.150;4.466;2022-11-11T07:58:04;52.00;46.74;59.80;;
66274;Laerm;58450;52.150;4.466;2022-11-11T08:00:32;51.60;46.00;65.77;;
66274;Laerm;58450;52.150;4.466;2022-11-11T08:03:00;58.50;46.16;72.94;;
66274;Laerm;58450;52.150;4.466;2022-11-11T08:05:27;58.52;47.12;71.41;;
66274;Laerm;58450;52.150;4.466;2022-11-11T08:07:55;51.56;44.55;62.47;;
66274;Laerm;58450;52.150;4.466;2022-11-11T08:10:22;50.69;44.51;65.25;;
66274;Laerm;58450;52.150;4.466;2022-11-11T08:12:54;54.20;45.30;70.80;;
66274;Laerm;58450;52.150;4.466;2022-11-11T08:15:39;50.35;45.60;61.33;;
66274;Laerm;58450;52.150;4.466;2022-11-11T08:18:07;50.91;44.90;63.49;;
66274;Laerm;58450;52.150;4.466;2022-11-11T08:20:35;50.75;44.11;68.24;;
66274;Laerm;58450;52.150;4.466;2022-11-11T08:23:02;51.26;45.16;65.32;;
66274;Laerm;58450;52.150;4.466;2022-11-11T08:25:30;50.34;45.37;61.14;;
66274;Laerm;58450;52.150;4.466;2022-11-11T08:28:03;50.57;45.29;63.95;;
66274;Laerm;58450;52.150;4.466;2022-11-11T08:30:32;48.94;44.47;59.41;;
66274;Laerm;58450;52.150;4.466;2022-11-11T08:33:01;49.10;43.81;62.56;;
66274;Laerm;58450;52.150;4.466;2022-11-11T08:35:30;49.62;42.89;64.04;;
66274;Laerm;58450;52.150;4.466;2022-11-11T08:38:01;49.52;43.38;63.86;;
66274;Laerm;58450;52.150;4.466;2022-11-11T08:40:28;49.35;44.30;63.56;;
66274;Laerm;58450;52.150;4.466;2022-11-11T08:42:56;56.67;44.29;75.51;;
66274;Laerm;58450;52.150;4.466;2022-11-11T08:45:25;51.54;43.82;63.81;;
66274;Laerm;58450;52.150;4.466;2022-11-11T08:47:53;51.25;43.42;62.21;;
66274;Laerm;58450;52.150;4.466;2022-11-11T08:50:20;50.34;45.15;59.22;;
66274;Laerm;58450;52.150;4.466;2022-11-11T08:52:50;49.26;43.69;60.26;;
66274;Laerm;58450;52.150;4.466;2022-11-11T08:55:18;49.01;43.43;61.99;;
66274;Laerm;58450;52.150;4.466;2022-11-11T08:57:46;48.92;43.39;62.39;;
66274;Laerm;58450;52.150;4.466;2022-11-11T09:00:15;48.60;43.60;64.22;;
66274;Laerm;58450;52.150;4.466;2022-11-11T09:02:43;47.57;41.99;59.35;;
66274;Laerm;58450;52.150;4.466;2022-11-11T09:05:11;48.25;42.41;62.24;;
66274;Laerm;58450;52.150;4.466;2022-11-11T09:07:38;49.94;43.62;72.29;;
66274;Laerm;58450;52.150;4.466;2022-11-11T09:10:08;49.86;43.37;74.36;;
66274;Laerm;58450;52.150;4.466;2022-11-11T09:12:35;49.98;43.42;63.11;;
66274;Laerm;58450;52.150;4.466;2022-11-11T09:15:03;58.37;42.67;78.95;;
66274;Laerm;58450;52.150;4.466;2022-11-11T09:17:31;51.49;42.84;65.32;;
66274;Laerm;58450;52.150;4.466;2022-11-11T09:20:00;49.20;44.38;66.49;;
66274;Laerm;58450;52.150;4.466;2022-11-11T09:22:27;52.54;44.61;74.05;;
66274;Laerm;58450;52.150;4.466;2022-11-11T09:24:55;51.02;43.95;67.90;;
66274;Laerm;58450;52.150;4.466;2022-11-11T09:27:22;54.11;44.87;76.89;;
66274;Laerm;58450;52.150;4.466;2022-11-11T09:29:50;51.24;45.43;68.01;;
66274;Laerm;58450;52.150;4.466;2022-11-11T09:32:18;49.46;45.11;59.11;;
66274;Laerm;58450;52.150;4.466;2022-11-11T09:34:46;50.60;45.05;56.46;;
66274;Laerm;58450;52.150;4.466;2022-11-11T09:37:15;49.66;44.90;59.17;;
66274;Laerm;58450;52.150;4.466;2022-11-11T09:39:42;49.65;44.48;58.04;;
66274;Laerm;58450;52.150;4.466;2022-11-11T09:42:28;51.72;45.28;68.12;;
66274;Laerm;58450;52.150;4.466;2022-11-11T09:45:15;49.61;42.83;63.18;;
66274;Laerm;58450;52.150;4.466;2022-11-11T09:47:56;50.12;43.45;60.60;;
66274;Laerm;58450;52.150;4.466;2022-11-11T09:50:30;53.91;43.98;68.88;;
66274;Laerm;58450;52.150;4.466;2022-11-11T09:53:12;54.83;43.78;71.10;;
66274;Laerm;58450;52.150;4.466;2022-11-11T09:55:48;50.40;42.70;66.10;;
66274;Laerm;58450;52.150;4.466;2022-11-11T09:58:22;47.91;43.31;60.92;;
66274;Laerm;58450;52.150;4.466;2022-11-11T10:00:58;48.43;42.90;63.61;;
66274;Laerm;58450;52.150;4.466;2022-11-11T10:03:29;48.13;43.15;59.27;;
66274;Laerm;58450;52.150;4.466;2022-11-11T10:06:06;47.24;43.13;52.54;;
66274;Laerm;58450;52.150;4.466;2022-11-11T10:08:47;49.19;43.76;59.78;;
66274;Laerm;58450;52.150;4.466;2022-11-11T10:11:26;48.10;43.60;60.09;;
66274;Laerm;58450;52.150;4.466;2022-11-11T10:13:55;53.43;43.21;73.87;;
66274;Laerm;58450;52.150;4.466;2022-11-11T10:16:37;48.53;43.60;60.71;;
66274;Laerm;58450;52.150;4.466;2022-11-11T10:19:20;48.26;42.97;61.92;;
66274;Laerm;58450;52.150;4.466;2022-11-11T10:21:59;47.91;42.39;60.37;;
66274;Laerm;58450;52.150;4.466;2022-11-11T10:24:32;48.72;43.19;61.35;;
66274;Laerm;58450;52.150;4.466;2022-11-11T10:27:14;47.58;42.51;60.43;;
66274;Laerm;58450;52.150;4.466;2022-11-11T10:29:43;47.76;41.92;67.42;;
66274;Laerm;58450;52.150;4.466;2022-11-11T10:32:18;51.01;43.80;71.70;;
66274;Laerm;58450;52.150;4.466;2022-11-11T10:34:47;48.65;43.76;64.84;;
66274;Laerm;58450;52.150;4.466;2022-11-11T10:37:20;48.91;43.03;66.18;;
66274;Laerm;58450;52.150;4.466;2022-11-11T10:40:01;48.73;44.71;60.24;;
66274;Laerm;58450;52.150;4.466;2022-11-11T10:42:31;49.53;43.43;68.67;;
66274;Laerm;58450;52.150;4.466;2022-11-11T10:45:00;49.38;43.36;62.27;;
66274;Laerm;58450;52.150;4.466;2022-11-11T10:47:42;52.00;43.86;65.10;;
66274;Laerm;58450;52.150;4.466;2022-11-11T10:50:18;51.21;43.56;70.85;;
66274;Laerm;58450;52.150;4.466;2022-11-11T10:52:55;51.62;44.93;67.48;;
66274;Laerm;58450;52.150;4.466;2022-11-11T10:55:33;49.67;44.77;57.46;;
66274;Laerm;58450;52.150;4.466;2022-11-11T10:58:11;49.25;44.73;56.97;;
66274;Laerm;58450;52.150;4.466;2022-11-11T11:00:48;49.22;43.98;58.50;;
66274;Laerm;58450;52.150;4.466;2022-11-11T11:03:23;49.85;44.31;67.16;;
66274;Laerm;58450;52.150;4.466;2022-11-11T11:06:02;50.74;45.00;62.71;;
66274;Laerm;58450;52.150;4.466;2022-11-11T11:08:37;49.19;44.62;59.07;;
66274;Laerm;58450;52.150;4.466;2022-11-11T11:11:15;48.86;43.86;62.19;;
66274;Laerm;58450;52.150;4.466;2022-11-11T11:13:51;50.86;44.04;62.18;;
66274;Laerm;58450;52.150;4.466;2022-11-11T11:16:24;50.53;44.94;60.39;;
66274;Laerm;58450;52.150;4.466;2022-11-11T11:19:19;49.39;43.65;65.26;;
66274;Laerm;58450;52.150;4.466;2022-11-11T11:21:51;48.34;43.86;59.32;;
66274;Laerm;58450;52.150;4.466;2022-11-11T11:24:22;48.77;43.73;59.94;;
66274;Laerm;58450;52.150;4.466;2022-11-11T11:26:55;47.82;42.43;56.14;;
66274;Laerm;58450;52.150;4.466;2022-11-11T11:29:29;47.97;43.46;56.37;;
66274;Laerm;58450;52.150;4.466;2022-11-11T11:32:15;47.71;42.77;55.49;;
66274;Laerm;58450;52.150;4.466;2022-11-11T11:34:48;49.15;44.09;63.45;;
66274;Laerm;58450;52.150;4.466;2022-11-11T11:37:19;48.87;43.31;61.91;;
66274;Laerm;58450;52.150;4.466;2022-11-11T11:39:48;49.06;44.34;57.55;;
66274;Laerm;58450;52.150;4.466;2022-11-11T11:42:31;49.17;44.12;60.91;;
66274;Laerm;58450;52.150;4.466;2022-11-11T11:45:22;50.39;43.79;64.15;;
66274;Laerm;58450;52.150;4.466;2022-11-11T11:48:06;49.85;44.01;63.05;;
66274;Laerm;58450;52.150;4.466;2022-11-11T11:50:44;48.88;43.61;61.33;;
66274;Laerm;58450;52.150;4.466;2022-11-11T11:53:35;49.47;42.32;67.43;;
66274;Laerm;58450;52.150;4.466;2022-11-11T11:56:18;50.11;42.18;63.97;;
66274;Laerm;58450;52.150;4.466;2022-11-11T11:59:05;49.99;42.59;75.71;;
66274;Laerm;58450;52.150;4.466;2022-11-11T12:01:49;51.22;43.43;70.26;;
66274;Laerm;58450;52.150;4.466;2022-11-11T12:05:00;47.98;42.43;58.05;;
66274;Laerm;58450;52.150;4.466;2022-11-11T12:07:50;48.11;42.60;57.87;;
66274;Laerm;58450;52.150;4.466;2022-11-11T12:10:36;52.87;43.21;76.33;;
66274;Laerm;58450;52.150;4.466;2022-11-11T12:13:17;49.78;43.10;66.08;;
66274;Laerm;58450;52.150;4.466;2022-11-11T12:16:02;48.34;42.34;59.08;;
66274;Laerm;58450;52.150;4.466;2022-11-11T12:18:58;48.88;43.61;60.34;;
66274;Laerm;58450;52.150;4.466;2022-11-11T12:21:38;48.22;41.90;56.80;;
66274;Laerm;58450;52.150;4.466;2022-11-11T12:24:31;49.13;42.92;63.18;;
66274;Laerm;58450;52.150;4.466;2022-11-11T12:27:15;49.43;43.51;61.12;;
66274;Laerm;58450;52.150;4.466;2022-11-11T12:30:01;56.36;43.70;72.58;;
66274;Laerm;58450;52.150;4.466;2022-11-11T12:33:05;56.88;46.14;65.92;;
66274;Laerm;58450;52.150;4.466;2022-11-11T12:36:01;48.97;44.48;56.77;;
66274;Laerm;58450;52.150;4.466;2022-11-11T12:38:52;49.08;43.29;58.84;;
66274;Laerm;58450;52.150;4.466;2022-11-11T12:41:39;48.37;43.52;61.63;;
66274;Laerm;58450;52.150;4.466;2022-11-11T12:44:12;50.42;42.72;61.59;;
66274;Laerm;58450;52.150;4.466;2022-11-11T12:46:58;48.97;42.71;61.63;;
66274;Laerm;58450;52.150;4.466;2022-11-11T12:49:52;50.22;44.29;61.59;;
66274;Laerm;58450;52.150;4.466;2022-11-11T12:52:39;50.91;43.28;71.28;;
66274;Laerm;58450;52.150;4.466;2022-11-11T12:55:18;50.21;44.10;68.56;;
66274;Laerm;58450;52.150;4.466;2022-11-11T12:58:19;49.99;45.20;62.84;;
66274;Laerm;58450;52.150;4.466;2022-11-11T13:01:16;52.49;44.20;62.93;;
66274;Laerm;58450;52.150;4.466;2022-11-11T13:03:57;52.22;46.56;62.20;;
66274;Laerm;58450;52.150;4.466;2022-11-11T13:06:48;49.95;45.55;64.23;;
66274;Laerm;58450;52.150;4.466;2022-11-11T13:09:33;50.72;45.14;61.98;;
66274;Laerm;58450;52.150;4.466;2022-11-11T13:12:11;49.74;44.39;62.05;;
66274;Laerm;58450;52.150;4.466;2022-11-11T13:14:57;52.16;44.68;64.81;;
66274;Laerm;58450;52.150;4.466;2022-11-11T13:17:30;50.00;44.15;63.58;;
66274;Laerm;58450;52.150;4.466;2022-11-11T13:20:02;50.18;44.22;66.22;;
66274;Laerm;58450;52.150;4.466;2022-11-11T13:22:34;55.56;45.08;77.79;;
66274;Laerm;58450;52.150;4.466;2022-11-11T13:25:05;52.98;45.85;70.50;;
66274;Laerm;58450;52.150;4.466;2022-11-11T13:27:39;48.89;45.02;57.08;;
66274;Laerm;58450;52.150;4.466;2022-11-11T13:30:43;51.99;46.22;58.74;;
66274;Laerm;58450;52.150;4.466;2022-11-11T13:33:15;49.93;45.66;58.58;;
66274;Laerm;58450;52.150;4.466;2022-11-11T13:35:47;49.97;45.28;60.48;;
66274;Laerm;58450;52.150;4.466;2022-11-11T13:38:28;50.86;45.06;65.26;;
66274;Laerm;58450;52.150;4.466;2022-11-11T13:41:00;48.79;44.53;61.30;;
66274;Laerm;58450;52.150;4.466;2022-11-11T13:43:33;51.49;44.74;61.87;;
66274;Laerm;58450;52.150;4.466;2022-11-11T13:46:05;50.07;45.31;60.48;;
66274;Laerm;58450;52.150;4.466;2022-11-11T13:48:37;51.75;45.64;64.55;;
66274;Laerm;58450;52.150;4.466;2022-11-11T13:51:20;49.67;45.04;58.76;;
66274;Laerm;58450;52.150;4.466;2022-11-11T13:53:50;50.95;44.86;67.69;;
66274;Laerm;58450;52.150;4.466;2022-11-11T13:56:25;49.20;43.28;60.28;;
66274;Laerm;58450;52.150;4.466;2022-11-11T13:58:55;53.34;44.39;68.62;;
66274;Laerm;58450;52.150;4.466;2022-11-11T14:01:32;55.75;48.58;68.12;;
66274;Laerm;58450;52.150;4.466;2022-11-11T14:04:04;51.14;45.76;61.43;;
66274;Laerm;58450;52.150;4.466;2022-11-11T14:06:52;52.26;45.83;63.13;;
66274;Laerm;58450;52.150;4.466;2022-11-11T14:09:58;50.56;44.23;61.10;;
66274;Laerm;58450;52.150;4.466;2022-11-11T14:12:39;50.00;44.89;59.62;;
66274;Laerm;58450;52.150;4.466;2022-11-11T14:15:36;52.50;45.95;64.07;;
66274;Laerm;58450;52.150;4.466;2022-11-11T14:18:10;50.81;44.96;60.38;;
66274;Laerm;58450;52.150;4.466;2022-11-11T14:20:57;49.92;44.44;61.32;;
66274;Laerm;58450;52.150;4.466;2022-11-11T14:23:33;48.59;44.17;58.66;;